sensor_id;sensor_type;location;lat;lon;timestamp;pressure;altitude;pressure_sealevel;temperature;humidity
46412;BME280;32113;42.012;24.870;2023-01-30T00:01:19;99355.31;;;6.60;52.50
46412;BME280;32113;42.012;24.870;2023-01-30T00:03:44;99361.22;;;6.59;52.05
46412;BME280;32113;42.012;24.870;2023-01-30T00:06:10;99356.97;;;6.60;51.79
46412;BME280;32113;42.012;24.870;2023-01-30T00:08:35;99357.84;;;6.63;52.02
46412;BME280;32113;42.012;24.870;2023-01-30T00:11:04;99354.19;;;6.39;52.26
46412;BME280;32113;42.012;24.870;2023-01-30T00:13:29;99354.34;;;6.52;51.29
46412;BME280;32113;42.012;24.870;2023-01-30T00:15:54;99352.63;;;6.49;51.67
46412;BME280;32113;42.012;24.870;2023-01-30T00:18:20;99356.81;;;6.44;52.08
46412;BME280;32113;42.012;24.870;2023-01-30T00:20:45;99354.28;;;6.44;52.41
46412;BME280;32113;42.012;24.870;2023-01-30T00:23:10;99349.94;;;6.37;52.44
46412;BME280;32113;42.012;24.870;2023-01-30T00:25:35;99349.91;;;6.35;51.92
46412;BME280;32113;42.012;24.870;2023-01-30T00:28:01;99346.53;;;6.38;51.94
46412;BME280;32113;42.012;24.870;2023-01-30T00:30:26;99348.97;;;6.28;52.42
46412;BME280;32113;42.012;24.870;2023-01-30T00:32:53;99354.16;;;6.35;52.14
46412;BME280;32113;42.012;24.870;2023-01-30T00:35:18;99347.38;;;6.37;52.06
46412;BME280;32113;42.012;24.870;2023-01-30T00:37:43;99357.47;;;6.29;52.27
46412;BME280;32113;42.012;24.870;2023-01-30T00:40:09;99349.72;;;6.20;52.68
46412;BME280;32113;42.012;24.870;2023-01-30T00:42:34;99355.56;;;6.11;53.58
46412;BME280;32113;42.012;24.870;2023-01-30T00:45:18;99353.84;;;6.10;53.24
46412;BME280;32113;42.012;24.870;2023-01-30T00:48:02;99345.41;;;6.14;53.28
46412;BME280;32113;42.012;24.870;2023-01-30T00:50:27;99347.84;;;6.04;53.12
46412;BME280;32113;42.012;24.870;2023-01-30T00:53:07;99348.78;;;6.11;53.11
46412;BME280;32113;42.012;24.870;2023-01-30T00:55:32;99346.19;;;6.08;52.81
46412;BME280;32113;42.012;24.870;2023-01-30T00:57:57;99344.56;;;6.13;53.33
46412;BME280;32113;42.012;24.870;2023-01-30T01:00:23;99342.88;;;6.15;52.91
46412;BME280;32113;42.012;24.870;2023-01-30T01:02:48;99340.34;;;6.15;52.50
46412;BME280;32113;42.012;24.870;2023-01-30T01:05:13;99338.69;;;6.17;52.95
46412;BME280;32113;42.012;24.870;2023-01-30T01:07:38;99337.06;;;6.24;53.40
46412;BME280;32113;42.012;24.870;2023-01-30T01:10:04;99337.97;;;6.31;52.44
46412;BME280;32113;42.012;24.870;2023-01-30T01:12:29;99335.44;;;6.33;52.50
46412;BME280;32113;42.012;24.870;2023-01-30T01:14:54;99347.41;;;6.38;52.22
46412;BME280;32113;42.012;24.870;2023-01-30T01:17:20;99340.56;;;6.36;51.98
46412;BME280;32113;42.012;24.870;2023-01-30T01:19:45;99329.53;;;6.34;51.36
46412;BME280;32113;42.012;24.870;2023-01-30T01:22:10;99332.09;;;6.37;52.15
46412;BME280;32113;42.012;24.870;2023-01-30T01:24:35;99323.50;;;6.30;51.73
46412;BME280;32113;42.012;24.870;2023-01-30T01:27:01;99323.59;;;6.38;51.78
46412;BME280;32113;42.012;24.870;2023-01-30T01:29:26;99320.06;;;6.25;50.04
46412;BME280;32113;42.012;24.870;2023-01-30T01:31:51;99320.75;;;6.11;50.92
46412;BME280;32113;42.012;24.870;2023-01-30T01:34:16;99314.56;;;5.92;49.51
46412;BME280;32113;42.012;24.870;2023-01-30T01:36:42;99321.16;;;5.79;48.64
46412;BME280;32113;42.012;24.870;2023-01-30T01:39:07;99312.63;;;5.75;48.49
46412;BME280;32113;42.012;24.870;2023-01-30T01:41:32;99315.25;;;5.80;47.98
46412;BME280;32113;42.012;24.870;2023-01-30T01:44:03;99319.34;;;5.70;48.02
46412;BME280;32113;42.012;24.870;2023-01-30T01:49:14;99319.59;;;5.29;48.41
46412;BME280;32113;42.012;24.870;2023-01-30T01:51:52;99314.41;;;5.22;48.96
46412;BME280;32113;42.012;24.870;2023-01-30T01:54:24;99322.91;;;5.23;48.94
46412;BME280;32113;42.012;24.870;2023-01-30T01:56:51;99325.19;;;5.07;49.71
46412;BME280;32113;42.012;24.870;2023-01-30T01:59:19;99326.91;;;5.08;49.44
46412;BME280;32113;42.012;24.870;2023-01-30T02:01:46;99318.38;;;5.05;49.65
46412;BME280;32113;42.012;24.870;2023-01-30T02:04:13;99322.56;;;5.01;49.99
46412;BME280;32113;42.012;24.870;2023-01-30T02:06:58;99319.22;;;5.04;49.54
46412;BME280;32113;42.012;24.870;2023-01-30T02:09:23;99316.88;;;5.16;49.94
46412;BME280;32113;42.012;24.870;2023-01-30T02:11:51;99311.06;;;5.25;49.76
46412;BME280;32113;42.012;24.870;2023-01-30T02:14:18;99312.66;;;5.18;49.15
46412;BME280;32113;42.012;24.870;2023-01-30T02:16:44;99312.66;;;5.18;50.06
46412;BME280;32113;42.012;24.870;2023-01-30T02:24:25;99307.47;;;5.12;50.03
46412;BME280;32113;42.012;24.870;2023-01-30T02:47:01;99302.63;;;5.28;49.81
46412;BME280;32113;42.012;24.870;2023-01-30T02:49:30;99295.91;;;5.33;49.83
46412;BME280;32113;42.012;24.870;2023-01-30T02:51:58;99297.81;;;5.46;49.83
46412;BME280;32113;42.012;24.870;2023-01-30T02:54:25;99304.69;;;5.52;49.46
46412;BME280;32113;42.012;24.870;2023-01-30T02:56:52;99303.66;;;5.41;49.68
46412;BME280;32113;42.012;24.870;2023-01-30T02:59:19;99309.59;;;5.41;49.74
46412;BME280;32113;42.012;24.870;2023-01-30T03:12:17;99303.06;;;5.02;51.13
46412;BME280;32113;42.012;24.870;2023-01-30T03:14:57;99297.94;;;4.98;51.00
46412;BME280;32113;42.012;24.870;2023-01-30T03:17:24;99308.81;;;4.91;51.42
46412;BME280;32113;42.012;24.870;2023-01-30T03:19:51;99295.91;;;4.79;51.14
46412;BME280;32113;42.012;24.870;2023-01-30T03:22:18;99296.72;;;4.78;51.88
46412;BME280;32113;42.012;24.870;2023-01-30T03:24:44;99303.69;;;4.88;51.30
46412;BME280;32113;42.012;24.870;2023-01-30T03:27:10;99287.66;;;4.94;51.74
46412;BME280;32113;42.012;24.870;2023-01-30T03:29:36;99288.03;;;5.16;51.84
46412;BME280;32113;42.012;24.870;2023-01-30T03:32:01;99280.56;;;5.26;51.39
46412;BME280;32113;42.012;24.870;2023-01-30T03:34:26;99284.00;;;5.30;50.75
46412;BME280;32113;42.012;24.870;2023-01-30T03:36:52;99279.81;;;5.34;51.19
46412;BME280;32113;42.012;24.870;2023-01-30T03:39:17;99277.53;;;5.52;50.25
46412;BME280;32113;42.012;24.870;2023-01-30T03:41:43;99274.25;;;5.60;50.07
46412;BME280;32113;42.012;24.870;2023-01-30T03:44:08;99285.28;;;5.62;50.14
46412;BME280;32113;42.012;24.870;2023-01-30T03:46:33;99275.72;;;5.44;50.46
46412;BME280;32113;42.012;24.870;2023-01-30T03:48:59;99277.56;;;5.56;50.70
46412;BME280;32113;42.012;24.870;2023-01-30T03:51:24;99275.09;;;5.62;50.47
46412;BME280;32113;42.012;24.870;2023-01-30T03:53:49;99275.19;;;5.67;49.44
46412;BME280;32113;42.012;24.870;2023-01-30T03:56:15;99274.25;;;5.60;49.37
46412;BME280;32113;42.012;24.870;2023-01-30T03:58:40;99274.94;;;5.48;49.64
46412;BME280;32113;42.012;24.870;2023-01-30T04:01:05;99277.19;;;5.28;49.71
46412;BME280;32113;42.012;24.870;2023-01-30T04:03:31;99283.09;;;5.26;50.54
46412;BME280;32113;42.012;24.870;2023-01-30T04:05:57;99273.81;;;5.30;50.56
46412;BME280;32113;42.012;24.870;2023-01-30T04:08:22;99268.78;;;5.33;50.01
46412;BME280;32113;42.012;24.870;2023-01-30T04:10:47;99269.72;;;5.40;50.69
46412;BME280;32113;42.012;24.870;2023-01-30T04:13:12;99267.00;;;5.28;50.21
46412;BME280;32113;42.012;24.870;2023-01-30T04:15:38;99260.34;;;5.36;50.29
46412;BME280;32113;42.012;24.870;2023-01-30T04:18:03;99273.69;;;5.21;48.87
46412;BME280;32113;42.012;24.870;2023-01-30T04:20:28;99269.47;;;5.21;50.07
46412;BME280;32113;42.012;24.870;2023-01-30T04:22:54;99271.91;;;5.15;49.57
46412;BME280;32113;42.012;24.870;2023-01-30T04:25:20;99270.28;;;5.19;49.92
46412;BME280;32113;42.012;24.870;2023-01-30T04:27:45;99267.69;;;5.17;49.86
46412;BME280;32113;42.012;24.870;2023-01-30T04:30:10;99265.91;;;5.11;49.56
46412;BME280;32113;42.012;24.870;2023-01-30T04:32:36;99270.09;;;5.08;49.95
46412;BME280;32113;42.012;24.870;2023-01-30T04:35:01;99268.63;;;5.22;50.05
46412;BME280;32113;42.012;24.870;2023-01-30T04:37:26;99269.31;;;5.12;49.87
46412;BME280;32113;42.012;24.870;2023-01-30T04:39:52;99270.00;;;5.03;49.76
46412;BME280;32113;42.012;24.870;2023-01-30T04:42:17;99264.75;;;4.91;50.36
46412;BME280;32113;42.012;24.870;2023-01-30T04:44:42;99269.25;;;5.07;50.21
46412;BME280;32113;42.012;24.870;2023-01-30T04:47:08;99269.16;;;5.01;50.00
46412;BME280;32113;42.012;24.870;2023-01-30T04:49:33;99274.00;;;4.87;49.70
46412;BME280;32113;42.012;24.870;2023-01-30T04:51:58;99274.06;;;4.90;50.17
46412;BME280;32113;42.012;24.870;2023-01-30T04:54:23;99278.16;;;4.82;50.01
46412;BME280;32113;42.012;24.870;2023-01-30T04:56:49;99273.03;;;4.79;50.40
46412;BME280;32113;42.012;24.870;2023-01-30T04:59:14;99283.09;;;4.72;50.46
46412;BME280;32113;42.012;24.870;2023-01-30T05:01:39;99270.50;;;4.79;50.26
46412;BME280;32113;42.012;24.870;2023-01-30T05:04:05;99270.53;;;4.82;50.35
46412;BME280;32113;42.012;24.870;2023-01-30T05:06:31;99273.22;;;4.91;49.98
46412;BME280;32113;42.012;24.870;2023-01-30T05:08:57;99276.59;;;4.90;50.33
46412;BME280;32113;42.012;24.870;2023-01-30T05:11:23;99279.25;;;4.98;49.40
46412;BME280;32113;42.012;24.870;2023-01-30T05:13:48;99283.38;;;4.90;49.11
46412;BME280;32113;42.012;24.870;2023-01-30T05:16:14;99278.94;;;4.78;49.55
46412;BME280;32113;42.012;24.870;2023-01-30T05:18:40;99280.44;;;4.66;49.66
46412;BME280;32113;42.012;24.870;2023-01-30T05:21:15;99282.13;;;4.64;49.67
46412;BME280;32113;42.012;24.870;2023-01-30T05:23:41;99290.81;;;4.77;50.15
46412;BME280;32113;42.012;24.870;2023-01-30T05:26:06;99279.16;;;4.90;50.18
46412;BME280;32113;42.012;24.870;2023-01-30T05:28:32;99285.22;;;4.98;49.93
46412;BME280;32113;42.012;24.870;2023-01-30T05:31:00;99282.66;;;4.97;48.58
46412;BME280;32113;42.012;24.870;2023-01-30T05:33:26;99282.44;;;4.83;49.66
46412;BME280;32113;42.012;24.870;2023-01-30T05:35:51;99279.09;;;4.87;49.09
46412;BME280;32113;42.012;24.870;2023-01-30T05:38:16;99280.66;;;4.79;49.46
46412;BME280;32113;42.012;24.870;2023-01-30T05:40:41;99271.31;;;4.76;49.54
46412;BME280;32113;42.012;24.870;2023-01-30T05:43:07;99270.38;;;4.72;49.52
46412;BME280;32113;42.012;24.870;2023-01-30T05:45:34;99272.22;;;4.81;49.30
46412;BME280;32113;42.012;24.870;2023-01-30T05:47:59;99272.25;;;4.84;49.31
46412;BME280;32113;42.012;24.870;2023-01-30T05:50:24;99272.13;;;4.77;49.17
46412;BME280;32113;42.012;24.870;2023-01-30T05:52:50;99271.94;;;4.66;49.14
46412;BME280;32113;42.012;24.870;2023-01-30T05:55:15;99262.44;;;4.54;49.68
46412;BME280;32113;42.012;24.870;2023-01-30T05:57:40;99264.56;;;4.30;49.64
46412;BME280;32113;42.012;24.870;2023-01-30T06:00:06;99267.00;;;4.26;50.67
46412;BME280;32113;42.012;24.870;2023-01-30T06:02:31;99268.22;;;4.45;49.99
46412;BME280;32113;42.012;24.870;2023-01-30T06:04:57;99284.19;;;4.39;50.44
46412;BME280;32113;42.012;24.870;2023-01-30T06:07:22;99282.72;;;4.51;50.10
46412;BME280;32113;42.012;24.870;2023-01-30T06:09:47;99274.19;;;4.49;50.02
46412;BME280;32113;42.012;24.870;2023-01-30T06:12:13;99280.06;;;4.44;49.92
46412;BME280;32113;42.012;24.870;2023-01-30T06:14:38;99286.03;;;4.46;49.96
46412;BME280;32113;42.012;24.870;2023-01-30T06:17:03;99281.88;;;4.52;49.97
46412;BME280;32113;42.012;24.870;2023-01-30T06:19:29;99283.72;;;4.60;49.72
46412;BME280;32113;42.012;24.870;2023-01-30T06:21:54;99285.69;;;4.76;49.74
46412;BME280;32113;42.012;24.870;2023-01-30T06:24:19;99285.66;;;4.74;49.19
46412;BME280;32113;42.012;24.870;2023-01-30T06:26:44;99290.88;;;4.82;49.36
46412;BME280;32113;42.012;24.870;2023-01-30T06:29:10;99290.19;;;4.91;49.53
46412;BME280;32113;42.012;24.870;2023-01-30T06:31:35;99288.44;;;4.90;49.09
46412;BME280;32113;42.012;24.870;2023-01-30T06:34:00;99290.38;;;5.03;49.12
46412;BME280;32113;42.012;24.870;2023-01-30T06:36:26;99291.06;;;4.93;48.19
46412;BME280;32113;42.012;24.870;2023-01-30T06:38:51;99297.66;;;4.81;48.79
46412;BME280;32113;42.012;24.870;2023-01-30T06:41:16;99289.94;;;4.77;49.09
46412;BME280;32113;42.012;24.870;2023-01-30T06:43:42;99286.41;;;4.67;49.82
46412;BME280;32113;42.012;24.870;2023-01-30T06:46:07;99295.78;;;4.72;49.90
46412;BME280;32113;42.012;24.870;2023-01-30T06:48:32;99298.31;;;4.69;50.10
46412;BME280;32113;42.012;24.870;2023-01-30T06:50:58;99299.09;;;4.67;50.19
46412;BME280;32113;42.012;24.870;2023-01-30T06:53:23;99302.53;;;4.69;50.37
46412;BME280;32113;42.012;24.870;2023-01-30T06:55:54;99304.53;;;4.39;51.90
46412;BME280;32113;42.012;24.870;2023-01-30T06:58:19;99302.09;;;4.44;52.43
46412;BME280;32113;42.012;24.870;2023-01-30T07:00:45;99303.84;;;4.50;52.18
46412;BME280;32113;42.012;24.870;2023-01-30T07:03:11;99304.72;;;4.50;51.94
46412;BME280;32113;42.012;24.870;2023-01-30T07:05:37;99304.75;;;4.52;52.53
46412;BME280;32113;42.012;24.870;2023-01-30T07:08:03;99300.25;;;4.37;52.50
46412;BME280;32113;42.012;24.870;2023-01-30T07:10:28;99306.13;;;4.34;53.36
46412;BME280;32113;42.012;24.870;2023-01-30T07:12:56;99302.50;;;4.21;53.73
46412;BME280;32113;42.012;24.870;2023-01-30T07:15:21;99302.72;;;4.32;53.15
46412;BME280;32113;42.012;24.870;2023-01-30T07:17:46;99297.38;;;4.19;54.25
46412;BME280;32113;42.012;24.870;2023-01-30T07:20:12;99293.97;;;4.17;54.25
46412;BME280;32113;42.012;24.870;2023-01-30T07:22:37;99301.59;;;4.17;54.11
46412;BME280;32113;42.012;24.870;2023-01-30T07:25:02;99300.88;;;4.25;53.98
46412;BME280;32113;42.012;24.870;2023-01-30T07:27:28;99300.19;;;4.33;54.45
46412;BME280;32113;42.012;24.870;2023-01-30T07:29:53;99299.66;;;4.50;53.35
46412;BME280;32113;42.012;24.870;2023-01-30T07:32:18;99302.56;;;4.24;53.87
46412;BME280;32113;42.012;24.870;2023-01-30T07:34:44;99305.31;;;4.37;53.76
46412;BME280;32113;42.012;24.870;2023-01-30T07:37:09;99306.28;;;4.43;53.86
46412;BME280;32113;42.012;24.870;2023-01-30T07:39:35;99299.66;;;4.50;53.43
46412;BME280;32113;42.012;24.870;2023-01-30T07:42:00;99307.31;;;4.52;53.79
46412;BME280;32113;42.012;24.870;2023-01-30T07:44:26;99304.00;;;4.56;53.98
46412;BME280;32113;42.012;24.870;2023-01-30T07:46:51;99296.94;;;4.41;53.02
46412;BME280;32113;42.012;24.870;2023-01-30T07:49:16;99298.63;;;4.42;53.28
46412;BME280;32113;42.012;24.870;2023-01-30T07:51:41;99303.78;;;4.45;52.94
46412;BME280;32113;42.012;24.870;2023-01-30T07:54:07;99299.41;;;4.36;52.85
46412;BME280;32113;42.012;24.870;2023-01-30T07:56:32;99292.81;;;4.47;53.51
46412;BME280;32113;42.012;24.870;2023-01-30T07:58:57;99302.22;;;4.52;53.01
46412;BME280;32113;42.012;24.870;2023-01-30T08:01:23;99294.56;;;4.50;53.14
46412;BME280;32113;42.012;24.870;2023-01-30T08:03:48;99301.25;;;4.45;52.85
46412;BME280;32113;42.012;24.870;2023-01-30T08:06:14;99291.19;;;4.51;53.15
46412;BME280;32113;42.012;24.870;2023-01-30T08:08:39;99295.56;;;4.58;52.98
46412;BME280;32113;42.012;24.870;2023-01-30T08:11:05;99290.84;;;4.80;52.75
46412;BME280;32113;42.012;24.870;2023-01-30T08:13:30;99287.50;;;4.81;52.51
46412;BME280;32113;42.012;24.870;2023-01-30T08:15:59;99288.44;;;4.90;52.97
46412;BME280;32113;42.012;24.870;2023-01-30T08:18:24;99285.13;;;4.92;52.05
46412;BME280;32113;42.012;24.870;2023-01-30T08:20:49;99293.63;;;4.94;51.89
46412;BME280;32113;42.012;24.870;2023-01-30T08:23:15;99285.97;;;4.93;51.55
46412;BME280;32113;42.012;24.870;2023-01-30T08:25:40;99289.41;;;4.95;52.32
46412;BME280;32113;42.012;24.870;2023-01-30T08:28:05;99291.13;;;4.96;52.02
46412;BME280;32113;42.012;24.870;2023-01-30T08:30:30;99280.94;;;4.96;52.08
46412;BME280;32113;42.012;24.870;2023-01-30T08:33:03;99284.38;;;4.99;51.66
46412;BME280;32113;42.012;24.870;2023-01-30T08:35:28;99285.09;;;4.91;52.08
46412;BME280;32113;42.012;24.870;2023-01-30T08:37:53;99289.19;;;4.82;51.78
46412;BME280;32113;42.012;24.870;2023-01-30T08:40:19;99282.13;;;4.66;52.46
46412;BME280;32113;42.012;24.870;2023-01-30T08:42:44;99276.78;;;4.50;53.14
46412;BME280;32113;42.012;24.870;2023-01-30T08:45:10;99275.78;;;4.42;52.64
46412;BME280;32113;42.012;24.870;2023-01-30T08:47:35;99271.47;;;4.38;53.31
46412;BME280;32113;42.012;24.870;2023-01-30T08:50:00;99267.50;;;4.54;53.74
46412;BME280;32113;42.012;24.870;2023-01-30T08:52:26;99272.72;;;4.60;52.70
46412;BME280;32113;42.012;24.870;2023-01-30T08:54:51;99269.38;;;4.63;53.58
46412;BME280;32113;42.012;24.870;2023-01-30T08:57:17;99273.94;;;4.82;53.25
46412;BME280;32113;42.012;24.870;2023-01-30T08:59:42;99275.88;;;4.97;52.85
46412;BME280;32113;42.012;24.870;2023-01-30T09:02:10;99262.47;;;5.08;51.96
46412;BME280;32113;42.012;24.870;2023-01-30T09:04:36;99273.38;;;5.00;51.87
46412;BME280;32113;42.012;24.870;2023-01-30T09:07:01;99266.41;;;4.89;51.15
46412;BME280;32113;42.012;24.870;2023-01-30T09:09:27;99266.13;;;4.71;51.62
46412;BME280;32113;42.012;24.870;2023-01-30T09:11:52;99260.03;;;4.62;51.53
46412;BME280;32113;42.012;24.870;2023-01-30T09:14:18;99263.38;;;4.59;51.80
46412;BME280;32113;42.012;24.870;2023-01-30T09:16:47;99261.56;;;4.52;52.17
46412;BME280;32113;42.012;24.870;2023-01-30T09:19:13;99249.84;;;4.60;51.52
46412;BME280;32113;42.012;24.870;2023-01-30T09:21:38;99250.03;;;4.72;51.30
46412;BME280;32113;42.012;24.870;2023-01-30T09:24:04;99242.38;;;4.69;51.12
46412;BME280;32113;42.012;24.870;2023-01-30T09:26:29;99242.28;;;4.65;51.36
46412;BME280;32113;42.012;24.870;2023-01-30T09:28:55;99243.22;;;4.70;50.92
46412;BME280;32113;42.012;24.870;2023-01-30T09:31:20;99232.25;;;4.72;50.70
46412;BME280;32113;42.012;24.870;2023-01-30T09:33:45;99224.56;;;4.68;51.17
46412;BME280;32113;42.012;24.870;2023-01-30T09:36:10;99224.75;;;4.82;50.63
46412;BME280;32113;42.012;24.870;2023-01-30T09:38:36;99219.03;;;4.95;50.45
46412;BME280;32113;42.012;24.870;2023-01-30T09:49:27;99193.19;;;5.26;49.12
46412;BME280;32113;42.012;24.870;2023-01-30T09:54:29;99176.28;;;5.30;49.10
46412;BME280;32113;42.012;24.870;2023-01-30T09:57:00;99175.44;;;5.29;47.50
46412;BME280;32113;42.012;24.870;2023-01-30T09:59:41;99178.06;;;5.37;48.29
46412;BME280;32113;42.012;24.870;2023-01-30T10:04:34;99167.06;;;5.38;48.52
46412;BME280;32113;42.012;24.870;2023-01-30T10:07:06;99157.75;;;5.38;47.23
46412;BME280;32113;42.012;24.870;2023-01-30T10:27:31;99111.69;;;5.18;47.23
46412;BME280;32113;42.012;24.870;2023-01-30T10:29:58;99115.97;;;5.21;46.46
46412;BME280;32113;42.012;24.870;2023-01-30T10:32:26;99112.41;;;5.08;47.42
46412;BME280;32113;42.012;24.870;2023-01-30T10:34:56;99100.41;;;4.99;47.06
46412;BME280;32113;42.012;24.870;2023-01-30T10:37:29;99096.09;;;4.92;47.75
46412;BME280;32113;42.012;24.870;2023-01-30T10:42:28;99085.41;;;5.16;47.92
46412;BME280;32113;42.012;24.870;2023-01-30T10:44:59;99081.34;;;5.34;46.61
46412;BME280;32113;42.012;24.870;2023-01-30T10:47:36;99076.34;;;5.40;46.58
46412;BME280;32113;42.012;24.870;2023-01-30T10:50:51;99075.53;;;5.46;45.82
46412;BME280;32113;42.012;24.870;2023-01-30T10:58:04;99061.06;;;5.43;45.99
46412;BME280;32113;42.012;24.870;2023-01-30T11:01:36;99060.06;;;5.27;45.28
46412;BME280;32113;42.012;24.870;2023-01-30T11:03:40;99052.47;;;5.30;45.42
46412;BME280;32113;42.012;24.870;2023-01-30T11:06:13;99051.59;;;5.26;45.35
46412;BME280;32113;42.012;24.870;2023-01-30T11:08:40;99037.06;;;5.18;45.95
46412;BME280;32113;42.012;24.870;2023-01-30T11:13:50;99026.09;;;5.23;46.13
46412;BME280;32113;42.012;24.870;2023-01-30T11:16:24;99015.94;;;5.25;45.69
46412;BME280;32113;42.012;24.870;2023-01-30T11:18:49;99013.38;;;5.23;45.73
46412;BME280;32113;42.012;24.870;2023-01-30T11:21:22;99005.72;;;5.22;45.66
46412;BME280;32113;42.012;24.870;2023-01-30T11:23:48;98996.66;;;5.44;46.02
46412;BME280;32113;42.012;24.870;2023-01-30T11:26:27;99003.38;;;5.41;45.09
46412;BME280;32113;42.012;24.870;2023-01-30T11:28:54;98996.50;;;5.30;45.29
46412;BME280;32113;42.012;24.870;2023-01-30T11:31:26;98995.63;;;5.26;45.55
46412;BME280;32113;42.012;24.870;2023-01-30T11:34:03;98988.78;;;5.22;45.89
46412;BME280;32113;42.012;24.870;2023-01-30T11:36:30;98987.69;;;5.02;45.83
46412;BME280;32113;42.012;24.870;2023-01-30T11:39:00;98974.19;;;5.03;45.84
46412;BME280;32113;42.012;24.870;2023-01-30T11:41:26;98981.78;;;5.01;46.46
46412;BME280;32113;42.012;24.870;2023-01-30T11:43:58;98979.22;;;4.99;45.61
46412;BME280;32113;42.012;24.870;2023-01-30T11:46:23;98974.09;;;4.98;46.08
46412;BME280;32113;42.012;24.870;2023-01-30T11:48:50;98967.16;;;4.84;45.99
46412;BME280;32113;42.012;24.870;2023-01-30T11:51:18;98959.56;;;4.83;46.04
46412;BME280;32113;42.012;24.870;2023-01-30T11:53:46;98961.34;;;4.93;46.11
46412;BME280;32113;42.012;24.870;2023-01-30T11:58:40;98956.91;;;4.77;46.59
46412;BME280;32113;42.012;24.870;2023-01-30T12:01:10;98943.50;;;4.90;46.64
46412;BME280;32113;42.012;24.870;2023-01-30T12:03:38;98931.84;;;5.09;46.96
46412;BME280;32113;42.012;24.870;2023-01-30T12:06:08;98932.03;;;5.28;46.23
46412;BME280;32113;42.012;24.870;2023-01-30T12:08:37;98927.81;;;5.30;45.84
46412;BME280;32113;42.012;24.870;2023-01-30T12:11:03;98921.13;;;5.43;45.80
46412;BME280;32113;42.012;24.870;2023-01-30T12:13:41;98916.84;;;5.37;45.33
46412;BME280;32113;42.012;24.870;2023-01-30T12:18:44;98909.41;;;5.62;45.17
46412;BME280;32113;42.012;24.870;2023-01-30T12:24:04;98890.78;;;5.68;45.03
46412;BME280;32113;42.012;24.870;2023-01-30T12:26:44;98897.50;;;5.58;44.37
46412;BME280;32113;42.012;24.870;2023-01-30T12:31:45;98888.88;;;5.42;45.59
46412;BME280;32113;42.012;24.870;2023-01-30T12:34:11;98892.31;;;5.46;45.38
46412;BME280;32113;42.012;24.870;2023-01-30T12:47:36;98881.25;;;5.41;45.15
46412;BME280;32113;42.012;24.870;2023-01-30T13:06:37;98845.69;;;5.47;45.14
46412;BME280;32113;42.012;24.870;2023-01-30T13:08:41;98853.28;;;5.45;45.38
46412;BME280;32113;42.012;24.870;2023-01-30T13:13:48;98845.63;;;5.42;45.28
46412;BME280;32113;42.012;24.870;2023-01-30T13:27:05;98828.91;;;5.82;44.65
46412;BME280;32113;42.012;24.870;2023-01-30T13:29:35;98828.13;;;5.97;44.38
46412;BME280;32113;42.012;24.870;2023-01-30T13:32:04;98828.25;;;6.11;44.53
46412;BME280;32113;42.012;24.870;2023-01-30T13:34:34;98831.66;;;6.19;44.44
46412;BME280;32113;42.012;24.870;2023-01-30T13:37:01;98826.41;;;5.92;44.63
46412;BME280;32113;42.012;24.870;2023-01-30T13:39:34;98823.91;;;6.02;45.54
46412;BME280;32113;42.012;24.870;2023-01-30T13:42:00;98830.75;;;6.08;44.93
46412;BME280;32113;42.012;24.870;2023-01-30T13:44:29;98828.25;;;6.15;45.32
46412;BME280;32113;42.012;24.870;2023-01-30T13:46:56;98823.91;;;6.00;44.90
46412;BME280;32113;42.012;24.870;2023-01-30T13:49:35;98817.09;;;5.93;44.86
46412;BME280;32113;42.012;24.870;2023-01-30T13:52:07;98817.88;;;5.86;45.04
46412;BME280;32113;42.012;24.870;2023-01-30T14:02:28;98812.88;;;6.01;44.39
46412;BME280;32113;42.012;24.870;2023-01-30T14:04:54;98809.44;;;5.93;45.04
46412;BME280;32113;42.012;24.870;2023-01-30T14:12:16;98814.47;;;5.77;45.80
46412;BME280;32113;42.012;24.870;2023-01-30T14:14:42;98811.94;;;5.84;45.33
46412;BME280;32113;42.012;24.870;2023-01-30T14:17:21;98805.13;;;5.73;45.92
46412;BME280;32113;42.012;24.870;2023-01-30T14:22:24;98812.69;;;5.64;46.15
46412;BME280;32113;42.012;24.870;2023-01-30T14:25:33;98805.03;;;5.62;46.27
46412;BME280;32113;42.012;24.870;2023-01-30T14:27:38;98798.19;;;5.52;46.24
46412;BME280;32113;42.012;24.870;2023-01-30T14:32:52;98803.16;;;5.32;46.37
46412;BME280;32113;42.012;24.870;2023-01-30T14:35:24;98798.91;;;5.34;46.78
46412;BME280;32113;42.012;24.870;2023-01-30T14:37:50;98786.25;;;5.38;47.09
46412;BME280;32113;42.012;24.870;2023-01-30T14:45:48;98789.75;;;5.56;46.11
46412;BME280;32113;42.012;24.870;2023-01-30T14:48:27;98784.69;;;5.67;46.77
46412;BME280;32113;42.012;24.870;2023-01-30T14:53:34;98787.19;;;5.59;46.42
46412;BME280;32113;42.012;24.870;2023-01-30T14:56:00;98790.56;;;5.52;46.55
46412;BME280;32113;42.012;24.870;2023-01-30T14:58:26;98789.78;;;5.69;47.14
46412;BME280;32113;42.012;24.870;2023-01-30T15:00:55;98789.00;;;5.74;46.57
46412;BME280;32113;42.012;24.870;2023-01-30T15:03:23;98790.75;;;5.86;46.49
46412;BME280;32113;42.012;24.870;2023-01-30T15:05:48;98788.16;;;5.83;46.40
46412;BME280;32113;42.012;24.870;2023-01-30T15:08:15;98792.47;;;5.94;46.00
46412;BME280;32113;42.012;24.870;2023-01-30T15:31:54;98796.69;;;5.90;46.17
46412;BME280;32113;42.012;24.870;2023-01-30T15:34:20;98794.94;;;5.78;45.59
46412;BME280;32113;42.012;24.870;2023-01-30T15:36:45;98792.41;;;5.79;45.48
46412;BME280;32113;42.012;24.870;2023-01-30T15:39:20;98792.47;;;5.90;46.00
46412;BME280;32113;42.012;24.870;2023-01-30T15:41:46;98797.50;;;5.79;45.07
46412;BME280;32113;42.012;24.870;2023-01-30T15:52:02;98798.19;;;5.55;44.45
46412;BME280;32113;42.012;24.870;2023-01-30T15:54:28;98795.56;;;5.38;44.67
46412;BME280;32113;42.012;24.870;2023-01-30T15:56:53;98800.63;;;5.32;45.82
46412;BME280;32113;42.012;24.870;2023-01-30T15:59:30;98798.06;;;5.30;45.27
46412;BME280;32113;42.012;24.870;2023-01-30T16:02:12;98796.34;;;5.29;44.87
46412;BME280;32113;42.012;24.870;2023-01-30T16:04:39;98792.13;;;5.28;44.71
46412;BME280;32113;42.012;24.870;2023-01-30T16:07:22;98793.72;;;5.17;45.22